createdAt,value
2023-02-09T00:00:18.035Z,99.99
2023-02-09T00:01:18.010Z,99.99
2023-02-09T00:02:18.045Z,99.99
2023-02-09T00:03:17.974Z,99.99
2023-02-09T00:04:17.932Z,99.99
2023-02-09T00:05:17.891Z,99.99
2023-02-09T00:06:17.870Z,99.99
2023-02-09T00:07:17.837Z,99.99
2023-02-09T00:08:17.803Z,99.99
2023-02-09T00:09:17.780Z,99.99
2023-02-09T00:10:17.749Z,99.99
2023-02-09T00:11:17.725Z,99.99
2023-02-09T00:12:17.678Z,99.99
2023-02-09T00:13:17.671Z,99.99
2023-02-09T00:14:19.210Z,99.99
2023-02-09T00:15:17.631Z,99.99
2023-02-09T00:16:17.661Z,99.99
2023-02-09T00:17:17.538Z,99.99
2023-02-09T00:18:17.505Z,99.99
2023-02-09T00:19:17.482Z,99.99
2023-02-09T00:20:17.442Z,99.99
2023-02-09T00:21:17.423Z,99.99
2023-02-09T00:22:17.424Z,99.99
2023-02-09T00:23:17.361Z,99.99
2023-02-09T00:24:17.332Z,99.99
2023-02-09T00:25:17.339Z,99.99
2023-02-09T00:26:17.291Z,99.99
2023-02-09T00:27:17.268Z,99.99
2023-02-09T00:28:17.258Z,99.99
2023-02-09T00:29:17.193Z,99.99
2023-02-09T00:30:17.178Z,99.99
2023-02-09T00:31:17.352Z,99.99
2023-02-09T00:32:17.089Z,99.99
2023-02-09T00:33:17.085Z,99.99
2023-02-09T00:34:17.042Z,99.99
2023-02-09T00:35:17.015Z,99.99
2023-02-09T00:36:16.972Z,99.99
2023-02-09T00:37:16.944Z,99.99
2023-02-09T00:38:16.909Z,99.99
2023-02-09T00:39:16.891Z,99.99
2023-02-09T00:40:16.857Z,99.99
2023-02-09T00:41:16.878Z,99.99
2023-02-09T00:42:16.826Z,99.99
2023-02-09T00:43:16.770Z,99.99
2023-02-09T00:44:16.741Z,99.99
2023-02-09T00:45:16.737Z,99.99
2023-02-09T00:46:16.733Z,99.99
2023-02-09T00:47:16.654Z,99.99
2023-02-09T00:48:16.621Z,99.99
2023-02-09T00:49:16.594Z,99.99
2023-02-09T00:50:16.565Z,99.99
2023-02-09T00:51:16.522Z,99.99
2023-02-09T00:52:16.492Z,99.99
2023-02-09T00:53:16.467Z,99.99
2023-02-09T00:54:16.457Z,99.99
2023-02-09T00:55:16.417Z,99.99
2023-02-09T00:56:16.375Z,99.99
2023-02-09T00:57:16.349Z,99.99
2023-02-09T00:58:16.334Z,99.99
2023-02-09T00:59:16.295Z,99.99
2023-02-09T01:00:16.272Z,99.99
2023-02-09T01:01:16.251Z,99.99
2023-02-09T01:02:16.200Z,99.99
2023-02-09T01:03:16.187Z,99.99
2023-02-09T01:04:16.174Z,99.99
2023-02-09T01:05:16.117Z,99.99
2023-02-09T01:06:16.077Z,99.99
2023-02-09T01:07:16.052Z,99.99
2023-02-09T01:08:16.017Z,99.99
2023-02-09T01:09:15.990Z,99.99
2023-02-09T01:10:15.962Z,99.99
2023-02-09T01:11:15.927Z,99.99
2023-02-09T01:12:15.900Z,99.99
2023-02-09T01:13:15.872Z,99.99
2023-02-09T01:14:15.843Z,99.99
2023-02-09T01:15:15.816Z,99.99
2023-02-09T01:16:15.857Z,99.99
2023-02-09T01:17:15.744Z,99.99
2023-02-09T01:18:15.722Z,99.99
2023-02-09T01:19:15.683Z,99.99
2023-02-09T01:20:15.657Z,99.99
2023-02-09T01:21:15.619Z,99.99
2023-02-09T01:22:15.609Z,99.99
2023-02-09T01:23:15.567Z,99.99
2023-02-09T01:24:15.534Z,99.99
2023-02-09T01:25:15.505Z,99.99
2023-02-09T01:26:15.481Z,99.99
2023-02-09T01:27:15.449Z,99.99
2023-02-09T01:28:15.449Z,99.99
2023-02-09T01:29:15.392Z,99.99
2023-02-09T01:30:15.365Z,99.99
2023-02-09T01:31:15.450Z,99.99
2023-02-09T01:32:15.296Z,99.99
2023-02-09T01:33:15.264Z,99.99
2023-02-09T01:34:15.234Z,99.99
2023-02-09T01:35:15.233Z,99.99
2023-02-09T01:36:15.187Z,99.99
2023-02-09T01:37:15.146Z,99.99
2023-02-09T01:38:15.160Z,99.99
2023-02-09T01:39:15.118Z,99.99
2023-02-09T01:40:15.059Z,99.99
2023-02-09T01:41:15.042Z,99.99
2023-02-09T01:42:15.000Z,99.99
2023-02-09T01:43:14.978Z,99.99
2023-02-09T01:44:14.950Z,99.99
2023-02-09T01:45:14.912Z,99.99
2023-02-09T01:46:14.910Z,99.99
2023-02-09T01:47:14.854Z,99.99
2023-02-09T01:48:14.830Z,99.99
2023-02-09T01:49:14.799Z,99.99
2023-02-09T01:50:14.767Z,99.99
2023-02-09T01:51:14.743Z,99.99
2023-02-09T01:52:14.718Z,99.99
2023-02-09T01:53:14.672Z,99.99
2023-02-09T01:54:14.643Z,99.99
2023-02-09T01:55:14.613Z,99.99
2023-02-09T01:56:14.593Z,99.99
2023-02-09T01:57:14.565Z,99.99
2023-02-09T01:58:14.528Z,99.99
2023-02-09T01:59:14.505Z,99.99
2023-02-09T02:00:14.474Z,99.99
2023-02-09T02:01:14.504Z,99.99
2023-02-09T02:02:14.436Z,99.99
2023-02-09T02:03:14.370Z,99.99
2023-02-09T02:04:14.346Z,99.99
2023-02-09T02:05:14.308Z,99.99
2023-02-09T02:06:14.313Z,99.99
2023-02-09T02:07:14.259Z,99.99
2023-02-09T02:08:14.224Z,99.99
2023-02-09T02:09:14.187Z,99.99
2023-02-09T02:10:14.168Z,99.99
2023-02-09T02:11:14.175Z,99.99
2023-02-09T02:12:14.114Z,99.99
2023-02-09T02:13:14.076Z,99.99
2023-02-09T02:14:14.066Z,99.99
2023-02-09T02:15:14.004Z,99.99
2023-02-09T02:16:14.066Z,99.99
2023-02-09T02:17:13.956Z,99.99
2023-02-09T02:18:13.928Z,99.99
2023-02-09T02:19:13.882Z,99.99
2023-02-09T02:20:13.864Z,99.99
2023-02-09T02:21:13.832Z,99.99
2023-02-09T02:22:13.823Z,99.99
2023-02-09T02:23:13.767Z,99.99
2023-02-09T02:24:13.748Z,99.99
2023-02-09T02:25:13.709Z,99.99
2023-02-09T02:26:13.681Z,99.99
2023-02-09T02:27:13.649Z,99.99
2023-02-09T02:28:13.701Z,99.99
2023-02-09T02:29:13.590Z,99.99
2023-02-09T02:30:13.587Z,99.99
2023-02-09T02:31:13.655Z,99.99
2023-02-09T02:32:13.504Z,99.99
2023-02-09T02:33:13.457Z,99.99
2023-02-09T02:34:13.443Z,99.99
2023-02-09T02:35:13.420Z,99.99
2023-02-09T02:36:13.374Z,99.99
2023-02-09T02:37:13.365Z,99.99
2023-02-09T02:38:13.318Z,99.99
2023-02-09T02:39:13.277Z,99.99
2023-02-09T02:40:13.261Z,99.99
2023-02-09T02:41:13.224Z,99.99
2023-02-09T02:42:13.196Z,99.99
2023-02-09T02:43:13.154Z,99.99
2023-02-09T02:44:13.135Z,99.99
2023-02-09T02:45:13.101Z,99.99
2023-02-09T02:46:13.115Z,99.99
2023-02-09T02:47:13.040Z,99.99
2023-02-09T02:48:13.024Z,99.99
2023-02-09T02:49:15.126Z,99.99
2023-02-09T02:50:12.965Z,99.99
2023-02-09T02:51:12.929Z,99.99
2023-02-09T02:52:12.932Z,99.99
2023-02-09T02:53:12.862Z,99.99
2023-02-09T02:54:12.835Z,99.99
2023-02-09T02:55:12.805Z,99.99
2023-02-09T02:56:12.777Z,99.99
2023-02-09T02:57:12.748Z,99.99
2023-02-09T02:58:12.739Z,99.99
2023-02-09T02:59:12.711Z,99.99
2023-02-09T03:00:12.650Z,99.99
2023-02-09T03:01:12.662Z,99.99
2023-02-09T03:02:12.589Z,99.99
2023-02-09T03:03:12.557Z,99.99
2023-02-09T03:04:12.530Z,99.99
2023-02-09T03:05:12.561Z,99.99
2023-02-09T03:06:12.473Z,99.99
2023-02-09T03:07:12.441Z,99.99
2023-02-09T03:08:12.417Z,99.99
2023-02-09T03:09:12.424Z,99.99
2023-02-09T03:10:12.365Z,99.99
2023-02-09T03:11:12.329Z,99.99
2023-02-09T03:12:12.298Z,99.99
2023-02-09T03:13:12.260Z,99.99
2023-02-09T03:14:12.238Z,99.99
2023-02-09T03:19:48.411Z,99.99
2023-02-09T03:20:48.401Z,99.99
2023-02-09T03:21:48.417Z,99.99
2023-02-09T03:22:48.349Z,99.99
2023-02-09T03:23:48.307Z,99.99
2023-02-09T03:25:48.220Z,99.99
2023-02-09T03:26:48.183Z,99.99
2023-02-09T03:27:48.166Z,99.99
2023-02-09T03:28:48.125Z,99.99
2023-02-09T03:29:48.099Z,99.99
2023-02-09T03:30:48.418Z,99.99
2023-02-09T03:31:48.049Z,99.99
2023-02-09T03:32:47.996Z,99.99
2023-02-09T03:33:47.968Z,99.99
2023-02-09T03:34:47.934Z,99.99
2023-02-09T03:35:47.908Z,99.99
2023-02-09T03:36:47.878Z,99.99
2023-02-09T03:37:47.853Z,99.99
2023-02-09T03:38:47.812Z,99.99
2023-02-09T03:39:47.787Z,99.99
2023-02-09T03:40:47.889Z,99.99
2023-02-09T03:41:47.738Z,99.99
2023-02-09T03:42:47.700Z,99.99
2023-02-09T03:43:47.666Z,99.99
2023-02-09T03:44:47.642Z,99.99
2023-02-09T03:45:47.607Z,99.99
2023-02-09T03:46:47.608Z,99.99
2023-02-09T03:47:47.542Z,99.99
2023-02-09T03:48:47.513Z,99.99
2023-02-09T03:49:47.482Z,99.99
2023-02-09T03:50:47.694Z,99.99
2023-02-09T03:51:47.423Z,99.99
2023-02-09T03:52:47.417Z,99.99
2023-02-09T03:53:47.362Z,99.99
2023-02-09T03:54:47.343Z,99.99
2023-02-09T03:55:47.302Z,99.99
2023-02-09T03:56:47.274Z,99.99
2023-02-09T03:57:47.235Z,99.99
2023-02-09T03:58:47.220Z,99.99
2023-02-09T03:59:47.199Z,99.99
2023-02-09T04:00:47.400Z,99.99
2023-02-09T04:01:47.116Z,99.99
2023-02-09T04:02:47.148Z,99.99
2023-02-09T04:03:47.052Z,99.99
2023-02-09T04:04:47.022Z,99.99
2023-02-09T04:05:47.018Z,99.99
2023-02-09T04:06:46.974Z,99.99
2023-02-09T04:07:46.961Z,99.99
2023-02-09T04:08:46.908Z,99.99
2023-02-09T04:09:47.005Z,99.99
2023-02-09T04:10:47.221Z,99.99
2023-02-09T04:11:46.809Z,99.99
2023-02-09T04:12:46.790Z,99.99
2023-02-09T04:13:46.753Z,99.99
2023-02-09T04:14:46.725Z,99.99
2023-02-09T04:15:46.723Z,99.99
2023-02-09T04:16:46.672Z,99.99
2023-02-09T04:17:46.648Z,99.99
2023-02-09T04:18:46.655Z,99.99
2023-02-09T04:19:46.589Z,99.99
2023-02-09T04:22:07.626Z,99.99
2023-02-09T04:23:07.589Z,99.99
2023-02-09T04:24:07.500Z,99.99
2023-02-09T04:25:07.524Z,99.99
2023-02-09T04:26:07.451Z,99.99
2023-02-09T04:27:07.411Z,99.99
2023-02-09T04:28:07.424Z,99.99
2023-02-09T04:29:07.347Z,99.99
2023-02-09T04:30:07.338Z,99.99
2023-02-09T04:31:07.306Z,99.99
2023-02-09T04:32:07.450Z,99.99
2023-02-09T04:33:07.231Z,99.99
2023-02-09T04:34:07.201Z,99.99
2023-02-09T04:35:07.185Z,99.99
2023-02-09T04:36:07.140Z,99.99
2023-02-09T04:37:07.168Z,99.99
2023-02-09T04:38:07.095Z,99.99
2023-02-09T04:39:07.047Z,99.99
2023-02-09T04:40:07.852Z,99.99
2023-02-09T04:41:06.995Z,99.99
2023-02-09T04:42:07.031Z,99.99
2023-02-09T04:43:06.938Z,99.99
2023-02-09T04:44:06.914Z,99.99
2023-02-09T04:45:06.868Z,99.99
2023-02-09T04:46:06.918Z,99.99
2023-02-09T04:47:06.872Z,99.99
2023-02-09T04:48:06.825Z,99.99
2023-02-09T04:49:06.766Z,99.99
2023-02-09T04:50:06.733Z,99.99
2023-02-09T04:51:06.692Z,99.99
2023-02-09T04:52:06.657Z,99.99
2023-02-09T04:53:06.626Z,99.99
2023-02-09T04:54:06.673Z,99.99
2023-02-09T04:55:06.574Z,99.99
2023-02-09T04:56:06.547Z,99.99
2023-02-09T04:57:06.497Z,99.99
2023-02-09T04:58:06.467Z,99.99
2023-02-09T04:59:06.431Z,99.99
2023-02-09T05:00:06.428Z,99.99
2023-02-09T05:01:06.408Z,99.99
2023-02-09T05:02:06.358Z,99.99
2023-02-09T05:03:06.354Z,99.99
2023-02-09T05:04:06.290Z,99.99
2023-02-09T05:05:06.264Z,99.99
2023-02-09T05:06:06.274Z,99.99
2023-02-09T05:07:06.201Z,99.99
2023-02-09T05:08:06.189Z,99.99
2023-02-09T05:09:06.134Z,99.99
2023-02-09T05:10:06.117Z,99.99
2023-02-09T05:11:06.083Z,99.99
2023-02-09T05:12:06.056Z,99.99
2023-02-09T05:13:06.028Z,99.99
2023-02-09T05:14:05.983Z,99.99
2023-02-09T05:15:05.967Z,99.99
2023-02-09T05:16:06.015Z,99.99
2023-02-09T05:17:05.891Z,99.99
2023-02-09T05:18:05.866Z,99.99
2023-02-09T05:19:05.826Z,99.99
2023-02-09T05:20:05.803Z,99.99
2023-02-09T05:21:05.783Z,99.99
2023-02-09T05:22:05.737Z,99.99
2023-02-09T05:23:05.756Z,99.99
2023-02-09T05:24:05.680Z,99.99
2023-02-09T05:25:05.638Z,99.99
2023-02-09T05:26:05.628Z,99.99
2023-02-09T05:27:05.585Z,99.99
2023-02-09T05:28:05.597Z,99.99
2023-02-09T05:29:05.530Z,99.99
2023-02-09T05:30:05.501Z,99.99
2023-02-09T05:31:05.494Z,99.99
2023-02-09T05:32:05.527Z,99.99
2023-02-09T05:33:05.409Z,99.99
2023-02-09T05:34:05.384Z,99.99
2023-02-09T05:35:07.025Z,99.99
2023-02-09T05:36:05.329Z,99.99
2023-02-09T05:37:05.350Z,99.99
2023-02-09T05:38:05.310Z,99.99
2023-02-09T05:39:05.240Z,99.99
2023-02-09T05:40:05.204Z,99.99
2023-02-09T05:41:05.165Z,99.99
2023-02-09T05:42:05.141Z,99.99
2023-02-09T05:43:05.090Z,99.99
2023-02-09T05:44:05.073Z,99.99
2023-02-09T05:45:05.036Z,99.99
2023-02-09T05:46:08.092Z,99.99
2023-02-09T05:47:05.002Z,99.99
2023-02-09T05:48:04.946Z,99.99
2023-02-09T05:49:04.925Z,99.99
2023-02-09T05:50:04.892Z,99.99
2023-02-09T05:51:04.886Z,99.99
2023-02-09T05:52:04.826Z,99.99
2023-02-09T05:53:04.800Z,99.99
2023-02-09T05:54:04.770Z,99.99
2023-02-09T05:55:04.749Z,99.99
2023-02-09T05:56:04.706Z,99.99
2023-02-09T05:57:04.676Z,99.99
2023-02-09T05:58:04.641Z,99.99
2023-02-09T05:59:04.894Z,99.99
2023-02-09T06:00:04.589Z,99.99
2023-02-09T06:01:04.547Z,99.99
2023-02-09T06:02:04.561Z,99.99
2023-02-09T06:03:04.688Z,99.99
2023-02-09T06:04:04.500Z,99.99
2023-02-09T06:05:04.443Z,99.99
2023-02-09T06:06:04.394Z,99.99
2023-02-09T06:07:04.425Z,99.99
2023-02-09T06:08:04.337Z,99.99
2023-02-09T06:09:04.303Z,99.99
2023-02-09T06:10:04.267Z,99.99
2023-02-09T06:11:04.236Z,99.99
2023-02-09T06:12:04.208Z,99.99
2023-02-09T06:13:04.168Z,99.99
2023-02-09T06:14:04.150Z,99.99
2023-02-09T06:15:04.121Z,99.99
2023-02-09T06:16:04.108Z,99.99
2023-02-09T06:17:04.049Z,99.99
2023-02-09T06:18:04.025Z,99.99
2023-02-09T06:19:04.000Z,99.99
2023-02-09T06:20:03.976Z,99.99
2023-02-09T06:21:03.960Z,99.99
2023-02-09T06:22:03.908Z,99.99
2023-02-09T06:23:03.869Z,99.99
2023-02-09T06:25:03.827Z,99.99
2023-02-09T06:26:03.775Z,99.99
2023-02-09T06:27:03.756Z,99.99
2023-02-09T06:28:03.762Z,99.99
2023-02-09T06:29:03.696Z,99.99
2023-02-09T06:30:03.655Z,99.99
2023-02-09T06:31:03.694Z,99.99
2023-02-09T06:32:03.674Z,99.99
2023-02-09T06:33:03.584Z,99.99
2023-02-09T06:34:03.539Z,99.99
2023-02-09T06:35:03.517Z,99.99
2023-02-09T06:37:03.556Z,99.99
2023-02-09T06:38:03.445Z,99.99
2023-02-09T06:39:03.520Z,99.99
2023-02-09T06:40:03.433Z,99.99
2023-02-09T06:41:03.336Z,99.99
2023-02-09T06:42:03.312Z,99.99
2023-02-09T06:43:03.277Z,99.99
2023-02-09T06:44:03.240Z,99.99
2023-02-09T06:45:03.209Z,99.99
2023-02-09T06:46:03.242Z,99.99
2023-02-09T06:47:03.160Z,99.99
2023-02-09T06:48:03.172Z,99.99
2023-02-09T06:49:03.136Z,99.99
2023-02-09T06:50:03.081Z,99.99
2023-02-09T06:51:03.089Z,99.99
2023-02-09T06:52:02.995Z,99.99
2023-02-09T06:53:02.964Z,99.99
2023-02-09T06:54:02.947Z,99.99
2023-02-09T06:55:02.908Z,99.99
2023-02-09T06:56:02.881Z,99.99
2023-02-09T06:57:02.858Z,99.99
2023-02-09T06:58:02.812Z,99.99
2023-02-09T06:59:02.835Z,99.99
2023-02-09T07:00:02.781Z,99.99
2023-02-09T07:01:02.743Z,99.99
2023-02-09T07:02:02.765Z,99.99
2023-02-09T07:03:02.688Z,99.99
2023-02-09T07:04:02.646Z,99.99
2023-02-09T07:05:02.615Z,99.99
2023-02-09T07:06:02.573Z,99.99
2023-02-09T07:07:02.569Z,99.99
2023-02-09T07:08:02.520Z,99.99
2023-02-09T07:09:02.494Z,99.99
2023-02-09T07:10:02.456Z,99.99
2023-02-09T07:11:02.453Z,99.99
2023-02-09T07:12:02.405Z,99.99
2023-02-09T07:13:02.400Z,99.99
2023-02-09T07:14:02.338Z,99.99
2023-02-09T07:15:02.329Z,99.99
2023-02-09T07:16:02.308Z,99.99
2023-02-09T07:17:02.255Z,99.99
2023-02-09T07:18:02.216Z,99.99
2023-02-09T07:19:02.196Z,99.99
2023-02-09T07:20:02.173Z,99.99
2023-02-09T07:21:02.143Z,99.99
2023-02-09T07:22:02.108Z,99.99
2023-02-09T07:23:02.078Z,99.99
2023-02-09T07:24:02.056Z,99.99
2023-02-09T07:25:02.028Z,99.99
2023-02-09T07:26:01.987Z,99.99
2023-02-09T07:27:01.968Z,99.99
2023-02-09T07:28:01.957Z,99.99
2023-02-09T07:29:01.906Z,99.99
2023-02-09T07:30:01.877Z,99.99
2023-02-09T07:31:02.127Z,99.99
2023-02-09T07:32:01.874Z,99.99
2023-02-09T07:33:01.785Z,99.99
2023-02-09T07:34:01.762Z,99.99
2023-02-09T07:35:01.723Z,99.99
2023-02-09T07:36:01.688Z,99.99
2023-02-09T07:37:01.682Z,99.99
2023-02-09T07:38:01.635Z,99.99
2023-02-09T07:39:01.601Z,99.99
2023-02-09T07:40:01.579Z,99.99
2023-02-09T07:41:01.571Z,99.99
2023-02-09T07:42:01.514Z,99.99
2023-02-09T07:43:01.499Z,99.99
2023-02-09T07:44:01.455Z,99.99
2023-02-09T07:45:01.425Z,99.99
2023-02-09T07:46:01.400Z,99.99
2023-02-09T07:47:01.385Z,99.99
2023-02-09T07:48:01.338Z,99.99
2023-02-09T07:49:01.558Z,99.99
2023-02-09T07:50:01.270Z,99.99
2023-02-09T07:51:01.288Z,99.99
2023-02-09T07:52:01.234Z,99.99
2023-02-09T07:53:01.191Z,99.99
2023-02-09T07:54:01.180Z,99.99
2023-02-09T07:55:01.135Z,99.99
2023-02-09T07:56:01.093Z,99.99
2023-02-09T07:57:01.076Z,99.99
2023-02-09T07:58:01.050Z,99.99
2023-02-09T07:59:01.013Z,99.99
2023-02-09T08:00:00.977Z,99.99
2023-02-09T08:01:00.977Z,99.99
2023-02-09T08:02:00.972Z,99.99
2023-02-09T08:03:00.915Z,99.99
2023-02-09T08:04:00.860Z,99.99
2023-02-09T08:05:00.938Z,99.99
2023-02-09T08:06:00.803Z,99.99
2023-02-09T08:07:00.778Z,99.99
2023-02-09T08:08:00.744Z,99.99
2023-02-09T08:09:00.724Z,99.99
2023-02-09T08:10:00.688Z,99.99
2023-02-09T08:11:00.668Z,99.99
2023-02-09T08:12:00.739Z,99.99
2023-02-09T08:13:00.680Z,99.99
2023-02-09T08:14:00.585Z,99.99
2023-02-09T08:15:00.548Z,99.99
2023-02-09T08:16:00.569Z,99.99
2023-02-09T08:17:00.532Z,99.99
2023-02-09T08:18:00.453Z,99.99
2023-02-09T08:19:00.436Z,99.99
2023-02-09T08:20:00.407Z,99.99
2023-02-09T08:21:00.387Z,99.99
2023-02-09T08:22:00.375Z,99.99
2023-02-09T08:23:00.335Z,99.99
2023-02-09T08:24:00.290Z,99.99
2023-02-09T08:25:00.267Z,99.99
2023-02-09T08:26:00.248Z,99.99
2023-02-09T08:27:00.216Z,99.99
2023-02-09T08:28:00.268Z,99.99
2023-02-09T08:29:00.223Z,99.99
2023-02-09T08:30:00.146Z,99.99
2023-02-09T08:31:00.151Z,99.99
2023-02-09T08:32:00.201Z,99.99
2023-02-09T08:33:00.055Z,99.99
2023-02-09T08:34:00.082Z,99.99
2023-02-09T08:35:00.013Z,99.99
2023-02-09T08:35:59.966Z,99.99
2023-02-09T08:36:59.949Z,99.99
2023-02-09T08:37:59.908Z,99.99
2023-02-09T08:38:59.891Z,99.99
2023-02-09T08:39:59.863Z,99.99
2023-02-09T08:40:59.853Z,99.99
2023-02-09T08:41:59.804Z,99.99
2023-02-09T08:42:59.781Z,99.99
2023-02-09T08:43:59.751Z,99.99
2023-02-09T08:44:59.736Z,99.99
2023-02-09T08:45:59.786Z,99.68
2023-02-09T08:46:59.840Z,98.07
2023-02-09T08:47:59.654Z,97.07
2023-02-09T08:48:59.629Z,95.55
2023-02-09T08:49:59.605Z,93.89
2023-02-09T08:50:59.578Z,93.70
2023-02-09T08:51:59.552Z,93.23
2023-02-09T08:52:59.537Z,92.94
2023-02-09T08:53:59.496Z,94.42
2023-02-09T08:54:59.476Z,94.98
2023-02-09T08:55:59.481Z,93.51
2023-02-09T08:56:59.436Z,94.70
2023-02-09T08:57:59.397Z,94.98
2023-02-09T08:58:59.386Z,95.36
2023-02-09T08:59:59.347Z,95.88
2023-02-09T09:00:59.377Z,97.02
2023-02-09T09:01:59.290Z,96.73
2023-02-09T09:02:59.281Z,98.07
2023-02-09T09:03:59.278Z,97.97
2023-02-09T09:04:59.225Z,98.82
2023-02-09T09:05:59.193Z,98.87
2023-02-09T09:06:59.181Z,99.06
2023-02-09T09:07:59.156Z,98.02
2023-02-09T09:08:59.119Z,98.11
2023-02-09T09:09:59.129Z,97.31
2023-02-09T09:10:59.091Z,95.46
2023-02-09T09:11:59.049Z,93.46
2023-02-09T09:12:59.040Z,92.23
2023-02-09T09:13:58.991Z,91.75
2023-02-09T09:14:58.980Z,91.99
2023-02-09T09:15:58.934Z,93.41
2023-02-09T09:16:58.971Z,94.98
2023-02-09T09:17:58.887Z,96.78
2023-02-09T09:18:58.896Z,97.36
2023-02-09T09:19:58.841Z,97.92
2023-02-09T09:20:58.810Z,97.31
2023-02-09T09:21:58.785Z,97.64
2023-02-09T09:22:58.785Z,99.10
2023-02-09T09:23:58.725Z,99.99
2023-02-09T09:24:58.704Z,99.99
2023-02-09T09:25:58.685Z,99.99
2023-02-09T09:26:58.658Z,99.99
2023-02-09T09:27:58.669Z,99.99
2023-02-09T09:28:58.605Z,99.99
2023-02-09T09:29:58.592Z,99.99
2023-02-09T09:30:58.658Z,99.99
2023-02-09T09:31:58.570Z,99.99
2023-02-09T09:32:58.567Z,99.99
2023-02-09T09:33:58.874Z,99.99
2023-02-09T09:34:58.448Z,99.99
2023-02-09T09:35:58.419Z,99.99
2023-02-09T09:36:58.431Z,99.99
2023-02-09T09:37:58.402Z,99.99
2023-02-09T09:38:58.358Z,99.99
2023-02-09T09:39:58.321Z,99.99
2023-02-09T09:40:58.290Z,99.99
2023-02-09T09:41:58.271Z,99.99
2023-02-09T09:42:58.261Z,99.99
2023-02-09T09:43:58.215Z,99.99
2023-02-09T09:44:58.221Z,99.99
2023-02-09T09:45:58.193Z,99.99
2023-02-09T09:46:58.133Z,99.99
2023-02-09T09:47:58.134Z,99.99
2023-02-09T09:48:58.096Z,99.99
2023-02-09T09:49:58.058Z,99.99
2023-02-09T09:50:58.033Z,99.99
2023-02-09T09:51:58.010Z,99.99
2023-02-09T09:52:57.987Z,99.99
2023-02-09T09:53:57.964Z,99.99
2023-02-09T09:54:57.949Z,99.99
2023-02-09T09:55:57.918Z,99.77
2023-02-09T09:56:57.890Z,98.72
2023-02-09T09:57:57.890Z,99.20
2023-02-09T09:58:57.827Z,99.48
2023-02-09T09:59:57.837Z,98.87
2023-02-09T10:00:57.833Z,98.02
2023-02-09T10:01:57.774Z,97.35
2023-02-09T10:02:57.740Z,97.54
2023-02-09T10:03:57.734Z,97.21
2023-02-09T10:04:57.733Z,96.45
2023-02-09T10:05:57.648Z,95.07
2023-02-09T10:06:57.620Z,94.51
2023-02-09T10:07:57.600Z,93.18
2023-02-09T10:08:57.569Z,93.13
2023-02-09T10:09:57.532Z,92.37
2023-02-09T10:10:57.569Z,91.61
2023-02-09T10:11:57.487Z,91.99
2023-02-09T10:12:57.467Z,91.42
2023-02-09T10:13:57.437Z,91.24
2023-02-09T10:14:57.415Z,90.99
2023-02-09T10:15:57.382Z,90.28
2023-02-09T10:16:57.440Z,88.57
2023-02-09T10:17:57.399Z,88.57
2023-02-09T10:18:57.319Z,88.28
2023-02-09T10:19:57.345Z,87.48
2023-02-09T10:20:57.302Z,88.39
2023-02-09T10:21:57.246Z,88.81
2023-02-09T10:22:57.217Z,88.71
2023-02-09T10:23:57.188Z,87.95
2023-02-09T10:24:57.175Z,87.86
2023-02-09T10:25:57.134Z,86.91
2023-02-09T10:26:57.115Z,87.62
2023-02-09T10:27:57.107Z,87.72
2023-02-09T10:28:57.062Z,87.95
2023-02-09T10:29:57.057Z,87.48
2023-02-09T10:30:57.111Z,86.76
2023-02-09T10:31:57.081Z,86.63
2023-02-09T10:32:56.967Z,87.19
2023-02-09T10:33:56.937Z,87.29
2023-02-09T10:34:56.943Z,87.62
2023-02-09T10:35:56.886Z,87.53
2023-02-09T10:36:56.865Z,87.43
2023-02-09T10:37:56.842Z,88.48
2023-02-09T10:38:56.807Z,90.09
2023-02-09T10:39:56.798Z,89.14
2023-02-09T10:40:56.763Z,89.38
2023-02-09T10:41:56.744Z,88.15
2023-02-09T10:42:56.740Z,87.86
2023-02-09T10:43:56.700Z,87.67
2023-02-09T10:44:56.678Z,86.95
2023-02-09T10:45:56.674Z,86.90
2023-02-09T10:46:56.609Z,85.24
2023-02-09T10:47:56.593Z,84.39
2023-02-09T10:48:56.578Z,84.10
2023-02-09T10:49:56.543Z,84.39
2023-02-09T10:50:56.529Z,84.29
2023-02-09T10:51:56.560Z,83.25
2023-02-09T10:52:56.507Z,83.39
2023-02-09T10:53:56.452Z,84.68
2023-02-09T10:54:56.424Z,86.30
2023-02-09T10:55:56.400Z,87.10
2023-02-09T10:56:56.407Z,87.19
2023-02-09T10:57:56.380Z,86.82
2023-02-09T10:58:56.339Z,85.91
2023-02-09T10:59:56.319Z,87.67
2023-02-09T11:00:56.289Z,88.43
2023-02-09T11:01:56.269Z,88.71
2023-02-09T11:02:56.235Z,89.14
2023-02-09T11:03:56.333Z,87.57
2023-02-09T11:04:56.244Z,85.66
2023-02-09T11:05:56.179Z,84.95
2023-02-09T11:06:56.160Z,84.33
2023-02-09T11:07:56.217Z,84.33
2023-02-09T11:08:56.132Z,83.86
2023-02-09T11:09:56.096Z,83.67
2023-02-09T11:10:56.058Z,83.52
2023-02-09T11:11:56.048Z,81.01
2023-02-09T11:12:56.010Z,81.92
2023-02-09T11:13:55.995Z,83.15
2023-02-09T11:14:55.975Z,84.25
2023-02-09T11:15:56.005Z,84.16
2023-02-09T11:16:55.926Z,85.35
2023-02-09T11:17:55.919Z,86.30
2023-02-09T11:18:55.888Z,85.91
2023-02-09T11:19:55.880Z,86.34
2023-02-09T11:20:55.837Z,86.43
2023-02-09T11:21:55.818Z,85.81
2023-02-09T11:22:55.785Z,85.15
2023-02-09T11:23:55.770Z,85.11
2023-02-09T11:24:55.739Z,85.72
2023-02-09T11:25:55.736Z,86.49
2023-02-09T11:26:55.704Z,87.34
2023-02-09T11:27:55.698Z,88.01
2023-02-09T11:28:55.668Z,88.67
2023-02-09T11:29:55.643Z,89.05
2023-02-09T11:30:55.860Z,88.57
2023-02-09T11:31:55.686Z,88.48
2023-02-09T11:32:55.593Z,88.67
2023-02-09T11:33:55.574Z,88.48
2023-02-09T11:34:55.515Z,87.72
2023-02-09T11:35:55.523Z,87.15
2023-02-09T11:36:55.476Z,88.53
2023-02-09T11:37:55.459Z,88.57
2023-02-09T11:38:55.433Z,88.48
2023-02-09T11:40:55.443Z,88.20
2023-02-09T11:41:55.497Z,88.29
2023-02-09T11:42:55.585Z,88.15
2023-02-09T11:43:55.481Z,88.43
2023-02-09T11:45:55.294Z,87.19
2023-02-09T11:46:55.259Z,87.82
2023-02-09T11:47:55.268Z,88.48
2023-02-09T11:48:55.205Z,88.43
2023-02-09T11:49:55.192Z,89.90
2023-02-09T11:50:55.167Z,89.62
2023-02-09T11:51:55.152Z,89.81
2023-02-09T11:52:55.146Z,90.76
2023-02-09T11:53:55.112Z,89.81
2023-02-09T11:54:55.088Z,89.95
2023-02-09T11:55:55.056Z,88.53
2023-02-09T11:56:55.031Z,87.57
2023-02-09T11:57:55.030Z,86.11
2023-02-09T11:58:55.003Z,86.68
2023-02-09T11:59:54.983Z,87.53
2023-02-09T12:01:04.053Z,88.24
2023-02-09T12:01:54.925Z,87.95
2023-02-09T12:02:55.125Z,87.34
2023-02-09T12:03:54.896Z,88.43
2023-02-09T12:04:54.860Z,88.57
2023-02-09T12:05:54.835Z,87.72
2023-02-09T12:06:54.936Z,88.01
2023-02-09T12:07:54.790Z,87.53
2023-02-09T12:08:54.769Z,89.09
2023-02-09T12:09:54.749Z,87.82
2023-02-09T12:10:54.724Z,87.43
2023-02-09T12:11:54.713Z,87.91
2023-02-09T12:12:54.690Z,87.82
2023-02-09T12:13:54.673Z,88.06
2023-02-09T12:14:54.832Z,88.15
2023-02-09T12:15:55.104Z,89.00
2023-02-09T12:17:55.166Z,87.82
2023-02-09T12:21:27.766Z,87.10
2023-02-09T12:22:27.944Z,87.67
2023-02-09T12:23:27.692Z,88.15
2023-02-09T12:24:27.648Z,87.86
2023-02-09T12:25:27.787Z,86.53
2023-02-09T12:27:36.840Z,87.10
2023-02-09T12:28:27.574Z,87.10
2023-02-09T12:29:27.458Z,87.48
2023-02-09T12:30:27.301Z,87.38
2023-02-09T12:31:27.523Z,88.01
2023-02-09T12:32:27.313Z,88.10
2023-02-09T12:33:27.231Z,87.95
2023-02-09T12:34:27.209Z,88.57
2023-02-09T12:35:27.179Z,88.39
2023-02-09T12:36:27.164Z,88.20
2023-02-09T12:37:27.655Z,88.86
2023-02-09T12:38:27.112Z,89.67
2023-02-09T12:39:27.089Z,90.81
2023-02-09T12:40:27.075Z,91.14
2023-02-09T12:41:27.116Z,91.71
2023-02-09T12:42:27.037Z,92.23
2023-02-09T12:43:27.021Z,90.52
2023-02-09T12:44:26.986Z,89.86
2023-02-09T12:45:27.029Z,89.24
2023-02-09T12:46:27.110Z,89.81
2023-02-09T12:47:26.947Z,90.28
2023-02-09T12:48:26.907Z,90.52
2023-02-09T12:49:26.891Z,90.42
2023-02-09T12:50:26.864Z,89.86
2023-02-09T12:51:26.847Z,89.72
2023-02-09T12:52:26.818Z,89.72
2023-02-09T12:53:26.804Z,90.28
2023-02-09T12:54:26.777Z,89.72
2023-02-09T12:55:26.756Z,90.47
2023-02-09T12:56:26.737Z,90.14
2023-02-09T12:57:26.719Z,91.47
2023-02-09T12:58:26.690Z,92.04
2023-02-09T12:59:26.678Z,91.94
2023-02-09T13:00:26.694Z,92.04
2023-02-09T13:01:26.650Z,92.04
2023-02-09T13:02:26.624Z,91.85
2023-02-09T13:03:26.626Z,91.56
2023-02-09T13:04:26.568Z,92.33
2023-02-09T13:05:26.546Z,91.94
2023-02-09T13:06:26.526Z,91.66
2023-02-09T13:07:26.531Z,92.52